sensor_id;sensor_type;location;lat;lon;timestamp;temperature;humidity
6810;DHT22;3443;48.812;9.112;2023-07-29T00:00:39;18.10;99.90
6810;DHT22;3443;48.812;9.112;2023-07-29T00:03:05;18.10;99.90
6810;DHT22;3443;48.812;9.112;2023-07-29T00:05:31;18.10;99.90
6810;DHT22;3443;48.812;9.112;2023-07-29T00:07:56;18.10;99.90
6810;DHT22;3443;48.812;9.112;2023-07-29T00:10:22;18.10;99.90
6810;DHT22;3443;48.812;9.112;2023-07-29T00:12:48;18.10;99.90
6810;DHT22;3443;48.812;9.112;2023-07-29T00:15:16;18.10;99.90
6810;DHT22;3443;48.812;9.112;2023-07-29T00:17:41;18.10;99.90
6810;DHT22;3443;48.812;9.112;2023-07-29T00:20:08;18.10;99.90
6810;DHT22;3443;48.812;9.112;2023-07-29T00:22:34;18.10;99.90
6810;DHT22;3443;48.812;9.112;2023-07-29T00:24:59;18.10;99.90
6810;DHT22;3443;48.812;9.112;2023-07-29T00:27:26;18.20;99.90
6810;DHT22;3443;48.812;9.112;2023-07-29T00:29:52;18.20;99.90
6810;DHT22;3443;48.812;9.112;2023-07-29T00:32:18;18.20;99.90
6810;DHT22;3443;48.812;9.112;2023-07-29T00:34:44;18.30;99.90
6810;DHT22;3443;48.812;9.112;2023-07-29T00:37:09;18.30;99.90
6810;DHT22;3443;48.812;9.112;2023-07-29T00:39:36;18.40;99.90
6810;DHT22;3443;48.812;9.112;2023-07-29T00:42:02;18.50;99.90
6810;DHT22;3443;48.812;9.112;2023-07-29T00:44:28;18.40;99.90
6810;DHT22;3443;48.812;9.112;2023-07-29T00:46:54;18.30;99.90
6810;DHT22;3443;48.812;9.112;2023-07-29T00:49:21;18.30;99.90
6810;DHT22;3443;48.812;9.112;2023-07-29T00:51:47;18.30;99.90
6810;DHT22;3443;48.812;9.112;2023-07-29T00:54:13;18.30;99.90
6810;DHT22;3443;48.812;9.112;2023-07-29T00:56:40;18.30;99.90
6810;DHT22;3443;48.812;9.112;2023-07-29T00:59:06;18.30;99.90
6810;DHT22;3443;48.812;9.112;2023-07-29T01:01:32;18.20;99.90
6810;DHT22;3443;48.812;9.112;2023-07-29T01:03:58;18.20;99.90
6810;DHT22;3443;48.812;9.112;2023-07-29T01:12:14;18.20;99.90
6810;DHT22;3443;48.812;9.112;2023-07-29T01:15:01;18.30;99.90
6810;DHT22;3443;48.812;9.112;2023-07-29T01:17:42;18.30;99.90
6810;DHT22;3443;48.812;9.112;2023-07-29T01:20:13;18.30;99.90
6810;DHT22;3443;48.812;9.112;2023-07-29T01:22:39;18.30;99.90
6810;DHT22;3443;48.812;9.112;2023-07-29T01:25:05;18.30;99.90
6810;DHT22;3443;48.812;9.112;2023-07-29T01:27:31;18.30;99.90
6810;DHT22;3443;48.812;9.112;2023-07-29T01:29:57;18.30;99.90
6810;DHT22;3443;48.812;9.112;2023-07-29T01:32:50;18.30;99.90
6810;DHT22;3443;48.812;9.112;2023-07-29T01:35:26;18.30;99.90
6810;DHT22;3443;48.812;9.112;2023-07-29T01:37:57;18.20;99.90
6810;DHT22;3443;48.812;9.112;2023-07-29T01:40:27;18.30;99.90
6810;DHT22;3443;48.812;9.112;2023-07-29T01:42:54;18.30;99.90
6810;DHT22;3443;48.812;9.112;2023-07-29T01:45:23;18.30;99.90
6810;DHT22;3443;48.812;9.112;2023-07-29T01:47:49;18.30;99.90
6810;DHT22;3443;48.812;9.112;2023-07-29T01:50:15;18.40;99.90
6810;DHT22;3443;48.812;9.112;2023-07-29T01:52:41;18.40;99.90
6810;DHT22;3443;48.812;9.112;2023-07-29T01:55:06;18.40;99.90
6810;DHT22;3443;48.812;9.112;2023-07-29T01:57:32;18.40;99.90
6810;DHT22;3443;48.812;9.112;2023-07-29T01:59:58;18.50;99.90
6810;DHT22;3443;48.812;9.112;2023-07-29T02:02:24;18.50;99.90
6810;DHT22;3443;48.812;9.112;2023-07-29T02:04:50;18.50;99.90
6810;DHT22;3443;48.812;9.112;2023-07-29T02:07:18;18.50;99.90
6810;DHT22;3443;48.812;9.112;2023-07-29T02:09:44;18.30;99.90
6810;DHT22;3443;48.812;9.112;2023-07-29T02:12:10;18.40;99.90
6810;DHT22;3443;48.812;9.112;2023-07-29T02:14:36;18.30;99.90
6810;DHT22;3443;48.812;9.112;2023-07-29T02:17:01;18.30;99.90
6810;DHT22;3443;48.812;9.112;2023-07-29T02:19:27;18.30;99.90
6810;DHT22;3443;48.812;9.112;2023-07-29T02:21:52;18.20;99.90
6810;DHT22;3443;48.812;9.112;2023-07-29T02:24:18;18.30;99.90
6810;DHT22;3443;48.812;9.112;2023-07-29T02:26:43;18.20;99.90
6810;DHT22;3443;48.812;9.112;2023-07-29T02:29:09;18.20;99.90
6810;DHT22;3443;48.812;9.112;2023-07-29T02:31:35;18.10;99.90
6810;DHT22;3443;48.812;9.112;2023-07-29T02:34:03;18.10;99.90
6810;DHT22;3443;48.812;9.112;2023-07-29T02:36:28;18.10;99.90
6810;DHT22;3443;48.812;9.112;2023-07-29T02:38:54;18.20;99.90
6810;DHT22;3443;48.812;9.112;2023-07-29T02:41:20;18.20;99.90
6810;DHT22;3443;48.812;9.112;2023-07-29T02:43:48;18.20;99.90
6810;DHT22;3443;48.812;9.112;2023-07-29T02:46:14;18.20;99.90
6810;DHT22;3443;48.812;9.112;2023-07-29T02:48:40;18.10;99.90
6810;DHT22;3443;48.812;9.112;2023-07-29T02:51:05;18.10;99.90
6810;DHT22;3443;48.812;9.112;2023-07-29T02:53:31;18.10;99.90
6810;DHT22;3443;48.812;9.112;2023-07-29T02:55:56;18.00;99.90
6810;DHT22;3443;48.812;9.112;2023-07-29T02:58:22;18.10;99.90
6810;DHT22;3443;48.812;9.112;2023-07-29T03:00:47;18.20;99.90
6810;DHT22;3443;48.812;9.112;2023-07-29T03:03:14;18.10;99.90
6810;DHT22;3443;48.812;9.112;2023-07-29T03:05:40;18.20;99.90
6810;DHT22;3443;48.812;9.112;2023-07-29T03:08:05;18.20;99.90
6810;DHT22;3443;48.812;9.112;2023-07-29T03:10:31;18.30;99.90
6810;DHT22;3443;48.812;9.112;2023-07-29T03:12:57;18.20;99.90
6810;DHT22;3443;48.812;9.112;2023-07-29T03:15:24;18.20;99.90
6810;DHT22;3443;48.812;9.112;2023-07-29T03:17:50;18.10;99.90
6810;DHT22;3443;48.812;9.112;2023-07-29T03:20:16;18.10;99.90
6810;DHT22;3443;48.812;9.112;2023-07-29T03:22:43;18.10;99.90
6810;DHT22;3443;48.812;9.112;2023-07-29T03:25:09;18.10;99.90
6810;DHT22;3443;48.812;9.112;2023-07-29T03:27:34;18.20;99.90
6810;DHT22;3443;48.812;9.112;2023-07-29T03:32:28;18.20;99.90
6810;DHT22;3443;48.812;9.112;2023-07-29T03:34:53;18.20;99.90
6810;DHT22;3443;48.812;9.112;2023-07-29T03:39:45;18.20;99.90
6810;DHT22;3443;48.812;9.112;2023-07-29T03:42:10;18.20;99.90
6810;DHT22;3443;48.812;9.112;2023-07-29T03:47:05;18.20;99.90
6810;DHT22;3443;48.812;9.112;2023-07-29T03:49:31;18.20;99.90
6810;DHT22;3443;48.812;9.112;2023-07-29T03:51:56;18.30;99.90
6810;DHT22;3443;48.812;9.112;2023-07-29T03:54:22;18.20;99.90
6810;DHT22;3443;48.812;9.112;2023-07-29T03:56:47;18.20;99.90
6810;DHT22;3443;48.812;9.112;2023-07-29T03:59:14;18.30;99.90
6810;DHT22;3443;48.812;9.112;2023-07-29T04:01:39;18.30;99.90
6810;DHT22;3443;48.812;9.112;2023-07-29T04:04:05;18.30;99.90
6810;DHT22;3443;48.812;9.112;2023-07-29T04:06:31;18.30;99.90
6810;DHT22;3443;48.812;9.112;2023-07-29T04:08:57;18.30;99.90
6810;DHT22;3443;48.812;9.112;2023-07-29T04:11:24;18.20;99.90
6810;DHT22;3443;48.812;9.112;2023-07-29T04:13:49;18.20;99.90
6810;DHT22;3443;48.812;9.112;2023-07-29T04:16:15;18.20;99.90
6810;DHT22;3443;48.812;9.112;2023-07-29T04:18:42;18.20;99.90
6810;DHT22;3443;48.812;9.112;2023-07-29T04:21:07;18.20;99.90
6810;DHT22;3443;48.812;9.112;2023-07-29T04:28:26;18.20;99.90
6810;DHT22;3443;48.812;9.112;2023-07-29T04:30:52;18.20;99.90
6810;DHT22;3443;48.812;9.112;2023-07-29T04:33:17;18.20;99.90
6810;DHT22;3443;48.812;9.112;2023-07-29T04:35:43;18.20;99.90
6810;DHT22;3443;48.812;9.112;2023-07-29T04:38:09;18.10;99.90
6810;DHT22;3443;48.812;9.112;2023-07-29T14:59:52;26.30;99.90
6810;DHT22;3443;48.812;9.112;2023-07-29T15:02:18;26.30;99.90
6810;DHT22;3443;48.812;9.112;2023-07-29T15:04:44;26.20;99.90
6810;DHT22;3443;48.812;9.112;2023-07-29T15:07:09;26.10;99.90
6810;DHT22;3443;48.812;9.112;2023-07-29T15:09:35;26.00;99.90
6810;DHT22;3443;48.812;9.112;2023-07-29T15:12:01;26.00;99.90
6810;DHT22;3443;48.812;9.112;2023-07-29T15:14:27;26.10;99.90
6810;DHT22;3443;48.812;9.112;2023-07-29T15:16:52;26.30;99.90
6810;DHT22;3443;48.812;9.112;2023-07-29T15:19:18;26.50;99.90
6810;DHT22;3443;48.812;9.112;2023-07-29T15:21:43;26.60;99.90
6810;DHT22;3443;48.812;9.112;2023-07-29T15:24:09;26.40;99.90
6810;DHT22;3443;48.812;9.112;2023-07-29T15:26:34;26.30;99.90
6810;DHT22;3443;48.812;9.112;2023-07-29T15:29:00;26.20;99.90
6810;DHT22;3443;48.812;9.112;2023-07-29T15:31:27;26.10;99.90
6810;DHT22;3443;48.812;9.112;2023-07-29T15:33:52;26.10;99.90
6810;DHT22;3443;48.812;9.112;2023-07-29T15:36:18;26.10;99.90
6810;DHT22;3443;48.812;9.112;2023-07-29T15:38:43;26.00;99.90
6810;DHT22;3443;48.812;9.112;2023-07-29T15:41:09;26.10;99.90
6810;DHT22;3443;48.812;9.112;2023-07-29T15:43:35;26.00;99.90
6810;DHT22;3443;48.812;9.112;2023-07-29T15:46:00;25.90;99.90
6810;DHT22;3443;48.812;9.112;2023-07-29T15:48:26;25.90;99.90
6810;DHT22;3443;48.812;9.112;2023-07-29T15:50:51;25.80;99.90
6810;DHT22;3443;48.812;9.112;2023-07-29T15:53:17;25.80;99.90
6810;DHT22;3443;48.812;9.112;2023-07-29T15:55:43;25.80;99.90
6810;DHT22;3443;48.812;9.112;2023-07-29T15:58:08;25.80;99.90
6810;DHT22;3443;48.812;9.112;2023-07-29T16:00:34;25.70;99.90
6810;DHT22;3443;48.812;9.112;2023-07-29T16:05:25;25.60;99.90
6810;DHT22;3443;48.812;9.112;2023-07-29T16:07:51;25.60;99.90
6810;DHT22;3443;48.812;9.112;2023-07-29T16:10:18;25.70;99.90
